createdAt,value
2019-05-16T00:02:18.718Z,1.63
2019-05-16T00:04:48.489Z,2.53
2019-05-16T00:07:19.213Z,1.57
2019-05-16T00:09:49.147Z,1.00
2019-05-16T00:12:18.963Z,1.47
2019-05-16T00:14:49.065Z,1.87
2019-05-16T00:17:18.983Z,3.10
2019-05-16T00:19:48.807Z,1.33
2019-05-16T00:22:18.493Z,1.67
2019-05-16T00:24:49.130Z,1.83
2019-05-16T00:27:18.792Z,1.30
2019-05-16T00:29:49.473Z,1.90
2019-05-16T00:32:19.259Z,1.13
2019-05-16T00:34:48.899Z,1.87
2019-05-16T00:37:22.929Z,1.00
2019-05-16T00:39:51.081Z,2.43
2019-05-16T00:42:20.832Z,1.23
2019-05-16T00:44:50.541Z,3.60
2019-05-16T00:47:20.330Z,0.70
2019-05-16T00:49:50.067Z,2.80
2019-05-16T00:52:21.042Z,2.60
2019-05-16T00:54:50.857Z,1.33
2019-05-16T00:57:21.590Z,0.63
2019-05-16T00:59:52.018Z,1.10
2019-05-16T01:02:21.694Z,0.43
2019-05-16T01:04:51.364Z,3.27
2019-05-16T01:07:21.051Z,0.90
2019-05-16T01:09:50.721Z,2.37
2019-05-16T01:12:21.384Z,0.50
2019-05-16T01:14:51.140Z,0.80
2019-05-16T01:17:20.816Z,2.30
2019-05-16T01:19:50.497Z,1.37
2019-05-16T01:22:20.174Z,0.90
2019-05-16T01:24:49.868Z,1.73
2019-05-16T01:27:19.533Z,2.20
2019-05-16T01:29:49.205Z,2.07
2019-05-16T01:32:19.199Z,0.60
2019-05-16T01:34:49.962Z,0.87
2019-05-16T01:37:19.688Z,0.50
2019-05-16T01:39:49.340Z,1.80
2019-05-16T01:42:19.020Z,1.30
2019-05-16T01:44:48.830Z,1.23
2019-05-16T01:47:18.474Z,1.13
2019-05-16T01:49:48.814Z,3.30
2019-05-16T01:52:18.754Z,0.93
2019-05-16T01:54:48.415Z,0.77
2019-05-16T01:57:18.269Z,2.30
2019-05-16T01:59:48.594Z,1.00
2019-05-16T02:02:18.514Z,1.27
2019-05-16T02:04:48.578Z,1.00
2019-05-16T02:07:18.942Z,2.87
2019-05-16T02:09:48.815Z,0.90
2019-05-16T02:12:18.673Z,0.80
2019-05-16T02:14:48.347Z,1.50
2019-05-16T02:17:18.479Z,2.53
2019-05-16T02:19:48.654Z,1.30
2019-05-16T02:22:18.375Z,0.80
2019-05-16T02:24:48.114Z,1.93
2019-05-16T02:27:18.329Z,1.70
2019-05-16T02:29:48.059Z,0.90
2019-05-16T02:32:17.729Z,1.00
2019-05-16T02:34:47.424Z,0.80
2019-05-16T02:37:29.283Z,1.70
2019-05-16T02:39:51.482Z,0.80
2019-05-16T02:42:21.253Z,3.40
2019-05-16T02:44:51.325Z,0.90
2019-05-16T02:47:21.368Z,0.60
2019-05-16T02:49:51.103Z,0.90
2019-05-16T02:52:21.810Z,1.00
2019-05-16T02:54:51.964Z,1.30
2019-05-16T02:57:21.856Z,4.60
2019-05-16T02:59:51.649Z,0.70
2019-05-16T03:02:21.518Z,1.40
2019-05-16T03:04:51.963Z,0.73
2019-05-16T03:07:37.790Z,2.33
2019-05-16T03:09:57.177Z,0.80
2019-05-16T03:12:30.795Z,1.47
2019-05-16T03:15:02.382Z,1.77
2019-05-16T03:17:35.742Z,0.60
2019-05-16T03:20:06.231Z,4.47
2019-05-16T03:22:36.821Z,1.70
2019-05-16T03:25:06.679Z,1.13
2019-05-16T03:27:36.335Z,2.00
2019-05-16T03:30:06.357Z,1.43
2019-05-16T03:32:36.057Z,1.73
2019-05-16T03:35:07.156Z,2.93
2019-05-16T03:37:51.408Z,2.03
2019-05-16T03:40:10.874Z,1.03
2019-05-16T03:43:01.025Z,2.00
2019-05-16T03:45:31.835Z,0.80
2019-05-16T03:48:02.830Z,1.20
2019-05-16T03:50:32.426Z,1.03
2019-05-16T03:53:02.140Z,0.93
2019-05-16T03:55:32.719Z,1.93
2019-05-16T03:58:02.885Z,1.30
2019-05-16T04:00:52.729Z,2.33
2019-05-16T04:03:23.088Z,3.33
2019-05-16T04:05:53.180Z,1.30
2019-05-16T04:08:25.259Z,0.90
2019-05-16T04:10:55.318Z,3.73
2019-05-16T04:13:24.953Z,1.73
2019-05-16T04:15:54.609Z,3.47
2019-05-16T04:18:24.279Z,1.53
2019-05-16T04:20:53.932Z,1.00
2019-05-16T04:23:23.618Z,0.63
2019-05-16T04:25:53.267Z,2.30
2019-05-16T04:28:23.582Z,1.63
2019-05-16T04:30:53.327Z,0.70
2019-05-16T04:33:23.004Z,1.50
2019-05-16T04:35:53.278Z,2.23
2019-05-16T04:38:34.928Z,3.10
2019-05-16T04:40:55.709Z,2.23
2019-05-16T04:43:25.402Z,1.07
2019-05-16T04:45:55.078Z,2.33
2019-05-16T04:48:24.762Z,0.93
2019-05-16T04:50:54.414Z,3.87
2019-05-16T04:53:24.072Z,1.73
2019-05-16T04:55:53.718Z,1.63
2019-05-16T04:58:24.586Z,5.53
2019-05-16T05:00:54.307Z,2.57
2019-05-16T05:03:23.973Z,1.40
2019-05-16T05:05:53.646Z,0.87
2019-05-16T05:08:23.310Z,1.27
2019-05-16T05:10:54.045Z,1.50
2019-05-16T05:13:23.759Z,2.17
2019-05-16T05:15:53.440Z,1.67
2019-05-16T05:18:23.076Z,2.07
2019-05-16T05:20:53.040Z,4.30
2019-05-16T05:23:22.867Z,1.17
2019-05-16T05:25:52.533Z,1.90
2019-05-16T05:28:22.170Z,1.60
2019-05-16T05:30:51.846Z,2.83
2019-05-16T05:33:21.538Z,2.97
2019-05-16T05:35:51.330Z,1.80
2019-05-16T05:38:21.826Z,2.30
2019-05-16T05:40:51.900Z,2.47
2019-05-16T05:43:22.566Z,1.77
2019-05-16T05:45:53.286Z,0.70
2019-05-16T05:48:22.928Z,3.30
2019-05-16T05:50:52.734Z,4.27
2019-05-16T05:53:22.398Z,2.10
2019-05-16T05:55:52.126Z,4.70
2019-05-16T05:58:21.802Z,1.47
2019-05-16T06:00:52.348Z,2.50
2019-05-16T06:03:23.209Z,2.10
2019-05-16T06:05:53.058Z,2.33
2019-05-16T06:08:22.790Z,1.07
2019-05-16T06:10:52.518Z,2.57
2019-05-16T06:13:22.170Z,1.57
2019-05-16T06:15:51.848Z,3.83
2019-05-16T06:18:21.501Z,1.47
2019-05-16T06:20:51.640Z,2.77
2019-05-16T06:23:21.419Z,2.77
2019-05-16T06:25:51.224Z,3.20
2019-05-16T06:28:21.277Z,2.33
2019-05-16T06:30:52.013Z,2.13
2019-05-16T06:33:21.925Z,2.50
2019-05-16T06:35:51.775Z,3.20
2019-05-16T06:38:21.550Z,2.97
2019-05-16T06:41:10.817Z,5.07
2019-05-16T06:43:40.657Z,1.97
2019-05-16T06:46:11.089Z,2.80
2019-05-16T06:48:40.906Z,2.83
2019-05-16T06:51:10.922Z,5.50
2019-05-16T06:53:40.676Z,3.07
2019-05-16T06:56:10.644Z,2.80
2019-05-16T06:58:47.628Z,1.67
2019-05-16T07:01:11.804Z,2.90
2019-05-16T07:03:41.496Z,2.13
2019-05-16T07:06:29.871Z,5.70
2019-05-16T07:08:42.695Z,2.37
2019-05-16T07:11:12.399Z,1.90
2019-05-16T07:13:42.070Z,2.20
2019-05-16T07:16:11.726Z,3.07
2019-05-16T07:18:42.353Z,3.40
2019-05-16T07:21:12.193Z,3.10
2019-05-16T07:23:41.860Z,2.97
2019-05-16T07:26:11.531Z,3.13
2019-05-16T07:28:41.204Z,2.30
2019-05-16T07:31:15.679Z,1.87
2019-05-16T07:33:42.426Z,3.27
2019-05-16T07:36:12.109Z,3.83
2019-05-16T07:38:41.756Z,4.23
2019-05-16T07:41:14.093Z,5.67
2019-05-16T07:43:43.065Z,2.90
2019-05-16T07:46:12.819Z,1.70
2019-05-16T07:48:42.493Z,2.57
2019-05-16T07:51:12.222Z,3.37
2019-05-16T07:53:56.575Z,4.17
2019-05-16T07:56:27.462Z,2.47
2019-05-16T07:58:57.125Z,4.70
2019-05-16T08:01:26.937Z,2.20
2019-05-16T08:03:56.669Z,5.80
2019-05-16T08:06:26.333Z,4.13
2019-05-16T08:08:55.981Z,2.83
2019-05-16T08:11:25.661Z,3.83
2019-05-16T08:13:55.333Z,2.57
2019-05-16T08:16:25.323Z,3.37
2019-05-16T08:18:55.976Z,3.97
2019-05-16T08:21:27.722Z,3.20
2019-05-16T08:23:57.102Z,3.57
2019-05-16T08:26:26.779Z,2.23
2019-05-16T08:28:56.511Z,3.43
2019-05-16T08:31:26.183Z,4.03
2019-05-16T08:33:55.888Z,2.17
2019-05-16T08:36:25.555Z,3.07
2019-05-16T08:38:55.274Z,3.57
2019-05-16T08:41:24.961Z,2.87
2019-05-16T08:43:54.638Z,3.17
2019-05-16T08:46:24.363Z,3.83
2019-05-16T08:48:54.381Z,5.70
2019-05-16T08:51:24.117Z,3.37
2019-05-16T08:53:53.780Z,7.07
2019-05-16T08:56:23.485Z,3.63
2019-05-16T08:58:54.191Z,3.17
2019-05-16T09:01:24.935Z,3.20
2019-05-16T09:03:54.589Z,4.47
2019-05-16T09:06:24.279Z,3.17
2019-05-16T09:08:58.193Z,8.70
2019-05-16T09:11:35.604Z,1.80
2019-05-16T09:13:57.375Z,4.33
2019-05-16T09:16:27.596Z,5.23
2019-05-16T09:18:57.960Z,4.67
2019-05-16T09:21:27.812Z,3.57
2019-05-16T09:23:57.943Z,2.83
2019-05-16T09:26:28.168Z,2.40
2019-05-16T09:28:57.862Z,5.03
2019-05-16T09:31:27.739Z,3.03
2019-05-16T09:33:57.670Z,5.23
2019-05-16T09:36:28.135Z,5.47
2019-05-16T09:38:58.956Z,4.40
2019-05-16T09:41:46.343Z,2.60
2019-05-16T09:43:59.997Z,3.70
2019-05-16T09:46:29.755Z,3.90
2019-05-16T09:49:15.851Z,5.10
2019-05-16T09:51:30.835Z,2.47
2019-05-16T09:54:00.670Z,3.50
2019-05-16T09:56:30.416Z,3.10
2019-05-16T09:59:00.101Z,5.77
2019-05-16T10:01:29.772Z,3.20
2019-05-16T10:03:59.603Z,3.47
2019-05-16T10:06:29.294Z,2.90
2019-05-16T10:08:59.036Z,3.87
2019-05-16T10:11:30.818Z,9.57
2019-05-16T10:14:00.072Z,4.90
2019-05-16T10:16:29.748Z,4.10
2019-05-16T10:18:59.479Z,3.43
2019-05-16T10:21:29.139Z,4.37
2019-05-16T10:23:58.819Z,4.43
2019-05-16T10:26:28.487Z,4.07
2019-05-16T10:28:58.250Z,3.47
2019-05-16T10:31:41.493Z,5.17
2019-05-16T10:33:59.450Z,5.03
2019-05-16T10:36:29.118Z,4.60
2019-05-16T10:38:59.341Z,3.57
2019-05-16T10:41:29.150Z,3.50
2019-05-16T10:43:59.846Z,5.00
2019-05-16T10:46:29.613Z,4.60
2019-05-16T10:48:59.271Z,5.20
2019-05-16T10:51:28.981Z,4.60
2019-05-16T10:54:08.841Z,3.87
2019-05-16T10:56:31.009Z,5.03
2019-05-16T10:59:37.772Z,4.23
2019-05-16T11:01:32.155Z,3.83
2019-05-16T11:04:01.881Z,5.93
2019-05-16T11:06:31.663Z,8.90
2019-05-16T11:09:02.448Z,3.63
2019-05-16T11:11:32.426Z,4.63
2019-05-16T11:14:02.181Z,5.80
2019-05-16T11:16:31.846Z,4.97
2019-05-16T11:19:14.435Z,6.33
2019-05-16T11:21:32.956Z,5.30
2019-05-16T11:24:02.641Z,3.93
2019-05-16T11:26:32.313Z,4.00
2019-05-16T11:29:02.070Z,6.20
2019-05-16T11:31:31.820Z,5.07
2019-05-16T11:34:01.509Z,8.67
2019-05-16T11:36:31.308Z,7.83
2019-05-16T11:39:02.056Z,6.33
2019-05-16T11:41:32.992Z,5.60
2019-05-16T11:44:02.693Z,5.03
2019-05-16T11:46:32.390Z,5.30
2019-05-16T11:49:47.759Z,5.40
2019-05-16T11:52:18.098Z,5.20
2019-05-16T11:54:47.985Z,7.30
2019-05-16T11:57:18.036Z,4.57
2019-05-16T11:59:48.928Z,6.63
2019-05-16T12:02:18.620Z,7.97
2019-05-16T12:04:48.323Z,6.17
2019-05-16T12:07:19.253Z,4.67
2019-05-16T12:09:55.202Z,7.07
2019-05-16T12:12:21.109Z,8.70
2019-05-16T12:14:51.117Z,5.07
2019-05-16T12:17:20.786Z,8.57
2019-05-16T12:19:52.925Z,9.23
2019-05-16T12:22:21.824Z,6.27
2019-05-16T12:24:51.488Z,7.93
2019-05-16T12:27:21.239Z,7.63
2019-05-16T12:29:55.245Z,6.57
2019-05-16T12:32:22.253Z,9.97
2019-05-16T12:34:51.942Z,9.90
2019-05-16T12:37:21.599Z,8.93
2019-05-16T12:39:51.362Z,7.67
2019-05-16T12:42:21.246Z,7.97
2019-05-16T12:44:50.944Z,8.80
2019-05-16T12:47:20.708Z,8.17
2019-05-16T12:49:50.365Z,6.87
2019-05-16T12:52:20.092Z,7.23
2019-05-16T12:54:50.834Z,9.17
2019-05-16T12:57:27.823Z,7.97
2019-05-16T12:59:52.647Z,7.00
2019-05-16T13:02:22.626Z,6.80
2019-05-16T13:04:52.320Z,5.00
2019-05-16T13:07:22.018Z,5.67
2019-05-16T13:09:51.716Z,6.20
2019-05-16T13:12:21.376Z,7.67
2019-05-16T13:14:51.047Z,9.07
2019-05-16T13:17:20.721Z,5.73
2019-05-16T13:19:50.384Z,12.57
2019-05-16T13:22:20.083Z,7.47
2019-05-16T13:24:49.846Z,6.93
2019-05-16T13:27:22.807Z,8.13
2019-05-16T13:29:51.028Z,9.63
2019-05-16T13:32:20.691Z,4.23
2019-05-16T13:34:50.377Z,7.07
2019-05-16T13:37:20.125Z,7.43
2019-05-16T13:39:49.799Z,6.00
2019-05-16T13:42:19.520Z,6.90
2019-05-16T13:44:49.199Z,6.63
2019-05-16T13:47:18.875Z,5.47
2019-05-16T13:49:48.629Z,6.83
2019-05-16T13:52:18.354Z,6.70
2019-05-16T13:54:48.093Z,8.50
2019-05-16T13:57:18.051Z,7.53
2019-05-16T13:59:47.730Z,5.83
2019-05-16T14:02:17.574Z,9.17
2019-05-16T14:04:48.469Z,6.17
2019-05-16T14:07:18.132Z,7.03
2019-05-16T14:09:47.875Z,7.07
2019-05-16T14:12:17.833Z,7.20
2019-05-16T14:14:47.978Z,4.67
2019-05-16T14:17:18.095Z,5.80
2019-05-16T14:19:48.225Z,7.63
2019-05-16T14:22:18.064Z,5.93
2019-05-16T14:24:48.334Z,8.43
2019-05-16T14:27:18.292Z,6.57
2019-05-16T14:29:48.155Z,4.13
2019-05-16T14:32:19.527Z,5.07
2019-05-16T14:34:51.502Z,6.20
2019-05-16T14:37:20.763Z,4.93
2019-05-16T14:39:50.482Z,4.50
2019-05-16T14:42:20.314Z,3.00
2019-05-16T14:45:09.233Z,3.63
2019-05-16T14:47:21.525Z,5.90
2019-05-16T14:49:51.208Z,4.90
2019-05-16T14:52:20.878Z,3.73
2019-05-16T14:54:50.571Z,3.63
2019-05-16T14:57:20.276Z,7.03
2019-05-16T14:59:49.935Z,6.20
2019-05-16T15:02:19.735Z,3.07
2019-05-16T15:04:49.812Z,4.00
2019-05-16T15:07:19.698Z,3.60
2019-05-16T15:09:49.312Z,5.00
2019-05-16T15:12:19.064Z,3.20
2019-05-16T15:14:48.858Z,4.07
2019-05-16T15:17:18.540Z,5.27
2019-05-16T15:19:48.204Z,4.20
2019-05-16T15:22:18.052Z,3.37
2019-05-16T15:24:47.775Z,3.60
2019-05-16T15:27:17.467Z,2.77
2019-05-16T15:29:48.166Z,4.23
2019-05-16T15:32:18.675Z,3.33
2019-05-16T15:34:48.417Z,3.07
2019-05-16T15:37:18.115Z,4.17
2019-05-16T15:39:47.856Z,4.67
2019-05-16T15:42:18.208Z,4.37
2019-05-16T15:44:48.026Z,4.90
2019-05-16T15:47:17.832Z,4.37
2019-05-16T15:49:47.850Z,5.23
2019-05-16T15:52:18.859Z,6.77
2019-05-16T15:54:49.714Z,4.93
2019-05-16T15:57:19.441Z,4.87
2019-05-16T15:59:49.181Z,4.90
2019-05-16T16:02:18.951Z,4.23
2019-05-16T16:04:48.776Z,4.20
2019-05-16T16:07:18.547Z,4.23
2019-05-16T16:09:48.419Z,4.43
2019-05-16T16:12:18.118Z,6.87
2019-05-16T16:14:47.949Z,7.53
2019-05-16T16:17:17.839Z,4.17
2019-05-16T16:19:47.699Z,5.00
2019-05-16T16:22:17.919Z,6.23
2019-05-16T16:24:48.056Z,7.27
2019-05-16T16:27:17.818Z,4.03
2019-05-16T16:29:48.172Z,5.53
2019-05-16T16:32:17.964Z,7.20
2019-05-16T16:34:48.950Z,6.70
2019-05-16T16:37:18.928Z,6.73
2019-05-16T16:39:48.605Z,6.20
2019-05-16T16:42:18.374Z,6.13
2019-05-16T16:44:48.072Z,4.83
2019-05-16T16:47:17.832Z,6.53
2019-05-16T16:52:59.600Z,6.30
2019-05-16T16:55:29.266Z,5.80
2019-05-16T16:57:59.698Z,6.17
2019-05-16T17:00:29.687Z,6.97
2019-05-16T17:03:06.194Z,4.63
2019-05-16T17:05:30.893Z,5.13
2019-05-16T17:08:00.591Z,6.53
2019-05-16T17:10:31.515Z,6.80
2019-05-16T17:13:01.197Z,7.67
2019-05-16T17:15:30.943Z,6.30
2019-05-16T17:18:00.626Z,4.70
2019-05-16T17:20:30.334Z,6.33
2019-05-16T17:23:00.078Z,6.37
2019-05-16T17:25:29.877Z,8.10
2019-05-16T17:27:59.753Z,8.10
2019-05-16T17:30:29.547Z,6.50
2019-05-16T17:32:59.326Z,7.47
2019-05-16T17:35:29.133Z,8.70
2019-05-16T17:37:58.918Z,7.77
2019-05-16T17:40:28.649Z,7.87
2019-05-16T17:42:58.375Z,7.97
2019-05-16T17:45:28.186Z,8.03
2019-05-16T17:47:57.868Z,10.87
2019-05-16T17:50:27.620Z,146.70
2019-05-16T17:52:57.870Z,243.73
2019-05-16T17:55:27.774Z,117.43
2019-05-16T17:57:57.605Z,22.33
2019-05-16T18:00:29.012Z,14.20
2019-05-16T18:02:59.152Z,13.17
2019-05-16T18:05:28.950Z,9.50
2019-05-16T18:07:58.771Z,9.20
2019-05-16T18:10:29.649Z,7.93
2019-05-16T18:12:59.348Z,9.47
2019-05-16T18:15:29.203Z,8.07
2019-05-16T18:18:26.899Z,8.00
2019-05-16T18:21:01.733Z,9.23
2019-05-16T18:23:28.193Z,9.23
2019-05-16T18:25:57.881Z,9.57
2019-05-16T18:28:27.644Z,9.73
2019-05-16T18:30:57.305Z,8.83
2019-05-16T18:33:27.730Z,8.70
2019-05-16T18:35:58.164Z,11.03
2019-05-16T18:38:28.146Z,10.17
2019-05-16T18:40:57.871Z,9.50
2019-05-16T18:43:27.772Z,9.90
2019-05-16T18:45:57.469Z,10.23
2019-05-16T18:48:27.538Z,10.23
2019-05-16T18:50:58.328Z,10.17
2019-05-16T18:53:28.412Z,10.17
2019-05-16T18:55:58.097Z,10.70
2019-05-16T18:58:27.968Z,10.73
2019-05-16T19:00:57.736Z,11.20
2019-05-16T19:03:27.817Z,12.70
2019-05-16T19:05:57.592Z,12.70
2019-05-16T19:08:27.388Z,13.37
2019-05-16T19:11:00.056Z,12.40
2019-05-16T19:13:28.528Z,12.43
2019-05-16T19:15:58.216Z,21.43
2019-05-16T19:18:27.908Z,37.60
2019-05-16T19:20:58.041Z,14.43
2019-05-16T19:23:27.727Z,12.90
2019-05-16T19:25:57.714Z,12.73
2019-05-16T19:28:28.694Z,11.97
2019-05-16T19:30:58.633Z,13.10
2019-05-16T19:33:28.308Z,13.83
2019-05-16T19:35:58.037Z,11.70
2019-05-16T19:38:29.318Z,13.80
2019-05-16T19:40:59.175Z,12.63
2019-05-16T19:43:28.968Z,14.87
2019-05-16T19:45:59.148Z,14.73
2019-05-16T19:48:28.895Z,14.57
2019-05-16T19:50:58.651Z,14.80
2019-05-16T19:53:28.375Z,15.73
2019-05-16T19:55:58.049Z,13.37
2019-05-16T19:58:30.939Z,13.53
2019-05-16T20:00:59.353Z,13.53
2019-05-16T20:03:29.167Z,14.73
2019-05-16T20:05:58.850Z,16.53
2019-05-16T20:08:28.545Z,14.83
2019-05-16T20:10:58.299Z,14.53
2019-05-16T20:13:28.153Z,14.30
2019-05-16T20:15:57.865Z,14.37
2019-05-16T20:18:27.640Z,13.07
2019-05-16T20:20:58.342Z,16.83
2019-05-16T20:23:28.025Z,14.77
2019-05-16T20:25:57.696Z,15.50
2019-05-16T20:28:27.468Z,20.80
2019-05-16T20:30:59.875Z,15.37
2019-05-16T20:33:29.684Z,20.43
2019-05-16T20:35:59.502Z,18.37
2019-05-16T20:38:29.270Z,16.27
2019-05-16T20:40:59.880Z,16.27
2019-05-16T20:43:29.846Z,20.27
2019-05-16T20:46:00.597Z,18.87
2019-05-16T20:48:30.556Z,19.40
2019-05-16T20:51:00.272Z,18.37
2019-05-16T20:53:29.910Z,19.73
2019-05-16T20:55:59.606Z,16.73
2019-05-16T20:58:29.354Z,18.57
2019-05-16T21:01:01.457Z,18.27
2019-05-16T21:03:30.605Z,20.20
2019-05-16T21:06:01.438Z,17.13
2019-05-16T21:08:31.108Z,18.30
2019-05-16T21:11:01.597Z,21.13
2019-05-16T21:13:31.396Z,19.60
2019-05-16T21:16:01.079Z,18.27
2019-05-16T21:18:30.771Z,16.73
2019-05-16T21:21:00.508Z,18.10
2019-05-16T21:23:30.293Z,15.03
2019-05-16T21:26:00.938Z,12.13
2019-05-16T21:28:30.689Z,11.90
2019-05-16T21:31:00.574Z,10.87
2019-05-16T21:33:30.249Z,12.43
2019-05-16T21:35:59.930Z,10.17
2019-05-16T21:38:29.691Z,10.43
2019-05-16T21:40:59.547Z,8.30
2019-05-16T21:43:29.242Z,9.93
2019-05-16T21:45:59.980Z,11.13
2019-05-16T21:48:29.723Z,9.67
2019-05-16T21:50:59.467Z,9.67
2019-05-16T21:53:30.096Z,12.87
2019-05-16T21:55:59.858Z,11.00
2019-05-16T21:58:29.634Z,12.10
2019-05-16T22:01:01.649Z,10.33
2019-05-16T22:03:32.932Z,10.33
2019-05-16T22:06:03.074Z,11.77
2019-05-16T22:08:32.893Z,10.37
2019-05-16T22:11:06.578Z,12.33
2019-05-16T22:13:37.402Z,10.90
2019-05-16T22:16:08.134Z,11.00
2019-05-16T22:18:38.525Z,10.57
2019-05-16T22:21:08.509Z,19.70
2019-05-16T22:23:38.220Z,13.47
2019-05-16T22:26:08.060Z,19.43
2019-05-16T22:28:38.815Z,11.80
2019-05-16T22:31:08.520Z,16.73
2019-05-16T22:33:38.218Z,17.27
2019-05-16T22:36:08.082Z,15.77
2019-05-16T22:38:38.957Z,13.73
2019-05-16T22:41:10.758Z,10.73
2019-05-16T22:43:40.270Z,20.70
2019-05-16T22:46:10.280Z,13.30
2019-05-16T22:48:40.925Z,11.63
2019-05-16T22:51:10.714Z,13.00
2019-05-16T22:53:40.463Z,12.63
2019-05-16T22:56:10.173Z,9.53
2019-05-16T22:58:39.880Z,24.97
2019-05-16T23:01:09.911Z,19.53
2019-05-16T23:03:39.680Z,14.10
2019-05-16T23:06:09.547Z,10.20
2019-05-16T23:08:39.229Z,15.87
2019-05-16T23:11:08.897Z,13.60
2019-05-16T23:13:38.565Z,11.10
2019-05-16T23:16:08.248Z,15.33
2019-05-16T23:18:37.954Z,9.20
2019-05-16T23:21:07.639Z,11.90
2019-05-16T23:23:37.450Z,9.77
2019-05-16T23:26:07.254Z,11.60
2019-05-16T23:28:37.010Z,12.93
2019-05-16T23:31:06.857Z,9.93
2019-05-16T23:33:36.747Z,11.73
2019-05-16T23:36:07.329Z,12.23
2019-05-16T23:38:49.330Z,7.37
2019-05-16T23:41:19.039Z,13.53
2019-05-16T23:43:48.718Z,10.57
2019-05-16T23:46:18.472Z,9.30
2019-05-16T23:48:48.132Z,10.20
2019-05-16T23:51:17.894Z,9.07
2019-05-16T23:53:47.552Z,11.83
2019-05-16T23:56:17.325Z,12.03
2019-05-16T23:58:47.702Z,8.83
